Terminal Aerodrome Forecast
Issued by NWS Sterling, VA

Home | Current Version | Previous Version | Text Only | Print | Product List | Glossary On
Versions: 1 2 3 4 5 6 7 8 9 10 11 12 13 14 15 16 17 18 19 20 21 22 23 24 25 26 27
000
FTUS41 KLWX 030537
TAFDCA
TAF
KDCA 030537Z 0306/0406 VRB04KT 6SM -SHRA OVC008
     FM030900 34005KT 5SM -SHRA BR OVC008
     FM031800 01005KT P6SM OVC015
     FM040100 05004KT P6SM BKN010
     FM040500 05004KT 6SM BR BKN003=

USA.gov is the U.S. government's official web portal to all federal, state and local government web resources and services.